createdAt,value
2022-12-11T00:02:24.686Z,14.32
2022-12-11T00:04:52.130Z,15.20
2022-12-11T00:07:19.241Z,16.08
2022-12-11T00:09:46.311Z,16.05
2022-12-11T00:12:13.426Z,14.38
2022-12-11T00:14:40.575Z,13.40
2022-12-11T00:17:07.677Z,14.73
2022-12-11T00:19:35.059Z,15.88
2022-12-11T00:22:02.242Z,14.70
2022-12-11T00:24:29.389Z,14.38
2022-12-11T00:26:56.762Z,14.10
2022-12-11T00:29:23.876Z,15.20
2022-12-11T00:31:51.022Z,15.27
2022-12-11T00:34:18.145Z,15.15
2022-12-11T00:36:45.296Z,15.45
2022-12-11T00:39:12.443Z,13.93
2022-12-11T00:41:39.847Z,17.05
2022-12-11T00:44:07.032Z,13.20
2022-12-11T00:46:34.233Z,16.73
2022-12-11T00:49:01.387Z,15.95
2022-12-11T00:51:28.565Z,16.85
2022-12-11T00:53:55.674Z,12.80
2022-12-11T00:56:23.326Z,14.68
2022-12-11T00:58:50.777Z,14.38
2022-12-11T01:01:21.013Z,16.80
2022-12-11T01:03:48.387Z,14.90
2022-12-11T01:06:19.583Z,14.88
2022-12-11T01:08:47.175Z,16.88
2022-12-11T01:11:16.192Z,13.38
2022-12-11T01:13:44.132Z,16.10
2022-12-11T01:16:15.391Z,19.65
2022-12-11T01:18:42.867Z,15.90
2022-12-11T01:21:11.193Z,17.30
2022-12-11T01:23:38.655Z,18.73
2022-12-11T01:26:06.666Z,16.67
2022-12-11T01:28:33.778Z,16.38
2022-12-11T01:31:01.021Z,15.40
2022-12-11T01:33:28.196Z,15.55
2022-12-11T01:35:55.497Z,17.60
2022-12-11T01:38:22.588Z,17.27
2022-12-11T01:40:51.300Z,16.75
2022-12-11T01:43:18.812Z,16.33
2022-12-11T01:45:48.142Z,18.00
2022-12-11T01:48:18.452Z,15.10
2022-12-11T01:50:50.210Z,12.70
2022-12-11T01:53:20.426Z,16.52
2022-12-11T01:55:48.477Z,12.90
2022-12-11T01:58:17.086Z,17.55
2022-12-11T02:00:44.192Z,15.73
2022-12-11T02:03:11.330Z,15.30
2022-12-11T02:05:38.867Z,15.75
2022-12-11T02:08:07.663Z,15.73
2022-12-11T02:10:57.568Z,15.02
2022-12-11T02:13:32.131Z,17.65
2022-12-11T02:16:18.246Z,14.82
2022-12-11T02:18:53.546Z,14.95
2022-12-11T02:23:55.299Z,16.77
2022-12-11T02:26:34.322Z,13.07
2022-12-11T02:29:08.047Z,15.73
2022-12-11T02:31:38.463Z,15.80
2022-12-11T02:34:09.419Z,12.77
2022-12-11T02:36:38.420Z,16.52
2022-12-11T02:39:07.898Z,15.80
2022-12-11T02:41:35.724Z,15.93
2022-12-11T02:44:03.418Z,16.33
2022-12-11T02:46:31.686Z,17.30
2022-12-11T02:48:59.045Z,16.83
2022-12-11T02:51:38.277Z,11.80
2022-12-11T02:54:07.517Z,15.15
2022-12-11T02:56:38.051Z,14.93
2022-12-11T02:59:09.990Z,15.15
2022-12-11T03:01:37.171Z,14.32
2022-12-11T03:04:04.300Z,15.85
2022-12-11T03:06:35.600Z,12.93
2022-12-11T03:09:02.776Z,13.60
2022-12-11T03:11:29.982Z,15.88
2022-12-11T03:13:57.186Z,12.98
2022-12-11T03:16:24.389Z,15.38
2022-12-11T03:18:51.496Z,14.60
2022-12-11T03:21:21.967Z,12.38
2022-12-11T03:23:57.819Z,15.88
2022-12-11T03:26:25.341Z,12.95
2022-12-11T03:29:00.474Z,14.68
2022-12-11T03:31:27.535Z,16.20
2022-12-11T03:33:56.353Z,14.40
2022-12-11T03:36:26.356Z,13.18
2022-12-11T03:39:01.810Z,13.05
2022-12-11T03:41:30.497Z,12.75
2022-12-11T03:43:58.639Z,13.25
2022-12-11T03:46:31.364Z,13.48
2022-12-11T03:49:01.478Z,11.65
2022-12-11T03:51:30.295Z,12.00
2022-12-11T03:53:57.736Z,11.25
2022-12-11T03:56:27.557Z,12.68
2022-12-11T03:58:54.698Z,12.98
2022-12-11T04:01:21.903Z,9.73
2022-12-11T04:03:49.087Z,12.95
2022-12-11T04:06:16.259Z,12.27
2022-12-11T04:08:43.355Z,9.73
2022-12-11T04:11:29.122Z,12.77
2022-12-11T04:14:14.924Z,10.77
2022-12-11T04:16:42.007Z,9.48
2022-12-11T04:19:28.853Z,11.20
2022-12-11T04:22:14.784Z,11.57
2022-12-11T04:24:41.897Z,12.02
2022-12-11T04:27:08.955Z,9.75
2022-12-11T04:29:36.172Z,10.25
2022-12-11T04:32:03.347Z,11.88
2022-12-11T04:34:30.710Z,10.27
2022-12-11T04:36:57.777Z,10.35
2022-12-11T04:39:24.858Z,9.00
2022-12-11T04:41:51.965Z,12.25
2022-12-11T04:44:19.082Z,12.35
2022-12-11T04:46:46.170Z,11.55
2022-12-11T04:49:13.328Z,12.35
2022-12-11T04:51:40.416Z,9.98
2022-12-11T04:54:07.570Z,9.05
2022-12-11T04:56:34.634Z,9.75
2022-12-11T04:59:01.733Z,11.25
2022-12-11T05:01:28.795Z,9.55
2022-12-11T05:03:56.145Z,10.82
2022-12-11T05:06:23.227Z,9.45
2022-12-11T05:08:50.384Z,10.60
2022-12-11T05:11:17.552Z,10.07
2022-12-11T05:13:45.564Z,11.13
2022-12-11T05:16:14.507Z,10.40
2022-12-11T05:18:41.599Z,8.38
2022-12-11T05:21:10.111Z,10.10
2022-12-11T05:23:37.636Z,10.48
2022-12-11T05:26:09.050Z,10.85
2022-12-11T05:28:37.619Z,11.20
2022-12-11T05:31:14.821Z,9.85
2022-12-11T05:33:42.142Z,11.00
2022-12-11T05:36:09.557Z,11.20
2022-12-11T05:38:36.674Z,8.35
2022-12-11T05:41:05.122Z,8.98
2022-12-11T05:43:33.501Z,9.23
2022-12-11T05:46:08.226Z,12.27
2022-12-11T05:48:35.947Z,9.90
2022-12-11T05:51:03.679Z,10.63
2022-12-11T05:53:31.407Z,11.30
2022-12-11T05:56:02.388Z,9.63
2022-12-11T05:58:29.774Z,9.95
2022-12-11T06:00:56.896Z,12.63
2022-12-11T06:03:23.987Z,10.05
2022-12-11T06:05:51.055Z,10.68
2022-12-11T06:08:18.286Z,12.07
2022-12-11T06:10:48.934Z,10.15
2022-12-11T06:13:16.601Z,11.30
2022-12-11T06:15:44.019Z,11.32
2022-12-11T06:18:11.171Z,12.00
2022-12-11T06:20:38.885Z,11.20
2022-12-11T06:23:06.189Z,9.25
2022-12-11T06:25:33.289Z,10.88
2022-12-11T06:28:00.354Z,12.20
2022-12-11T06:30:38.559Z,11.60
2022-12-11T06:33:06.824Z,10.73
2022-12-11T06:35:40.051Z,9.38
2022-12-11T06:38:08.691Z,10.70
2022-12-11T06:40:35.823Z,10.27
2022-12-11T06:43:03.508Z,11.48
2022-12-11T06:45:30.957Z,12.68
2022-12-11T06:47:58.884Z,13.85
2022-12-11T06:50:25.974Z,11.52
2022-12-11T06:52:53.104Z,14.07
2022-12-11T06:55:20.233Z,12.27
2022-12-11T06:57:47.326Z,12.05
2022-12-11T07:00:14.863Z,11.23
2022-12-11T07:02:42.000Z,13.65
2022-12-11T07:05:09.626Z,12.15
2022-12-11T07:07:36.906Z,12.40
2022-12-11T07:10:08.237Z,13.52
2022-12-11T07:12:36.031Z,12.23
2022-12-11T07:15:03.260Z,11.88
2022-12-11T07:17:30.441Z,9.60
2022-12-11T07:19:57.646Z,13.88
2022-12-11T07:22:24.728Z,13.15
2022-12-11T07:24:51.806Z,13.73
2022-12-11T07:27:19.132Z,14.73
2022-12-11T07:29:46.303Z,14.50
2022-12-11T07:32:13.576Z,13.23
2022-12-11T07:34:40.735Z,13.82
2022-12-11T07:37:07.876Z,15.30
2022-12-11T07:39:34.978Z,14.23
2022-12-11T07:42:02.231Z,12.38
2022-12-11T07:44:29.386Z,14.57
2022-12-11T07:46:56.444Z,14.05
2022-12-11T07:49:23.860Z,15.25
2022-12-11T07:51:51.184Z,14.38
2022-12-11T07:54:18.331Z,13.90
2022-12-11T07:56:51.201Z,14.70
2022-12-11T07:59:21.223Z,15.23
2022-12-11T08:01:48.409Z,13.98
2022-12-11T08:04:15.976Z,13.57
2022-12-11T08:06:43.590Z,14.40
2022-12-11T08:09:17.462Z,13.65
2022-12-11T08:11:48.883Z,12.48
2022-12-11T08:14:15.995Z,13.52
2022-12-11T08:16:44.194Z,14.55
2022-12-11T08:19:12.332Z,14.00
2022-12-11T08:21:40.144Z,13.07
2022-12-11T08:24:07.301Z,14.20
2022-12-11T08:26:34.451Z,14.40
2022-12-11T08:29:02.618Z,14.73
2022-12-11T08:31:29.918Z,13.75
2022-12-11T08:33:57.204Z,14.18
2022-12-11T08:36:24.791Z,13.55
2022-12-11T08:38:52.206Z,12.27
2022-12-11T08:41:20.839Z,12.70
2022-12-11T08:43:48.382Z,12.73
2022-12-11T08:46:16.082Z,12.68
2022-12-11T08:48:44.042Z,13.05
2022-12-11T08:51:15.139Z,12.73
2022-12-11T08:53:42.698Z,13.48
2022-12-11T08:56:13.795Z,14.57
2022-12-11T08:58:40.950Z,13.32
2022-12-11T09:01:09.205Z,13.98
2022-12-11T09:03:37.019Z,14.48
2022-12-11T09:06:06.116Z,13.07
2022-12-11T09:08:33.489Z,13.45
2022-12-11T09:11:04.751Z,12.35
2022-12-11T09:13:31.932Z,13.05
2022-12-11T09:15:59.204Z,13.65
2022-12-11T09:18:26.376Z,13.35
2022-12-11T09:21:10.533Z,14.95
2022-12-11T09:23:37.991Z,10.00
2022-12-11T09:26:06.221Z,13.27
2022-12-11T09:28:33.475Z,13.90
2022-12-11T09:31:00.864Z,14.15
2022-12-11T09:33:28.757Z,13.15
2022-12-11T09:36:02.863Z,14.68
2022-12-11T09:38:30.272Z,14.10
2022-12-11T09:40:57.489Z,13.95
2022-12-11T09:43:33.946Z,14.35
2022-12-11T09:46:03.720Z,12.80
2022-12-11T09:48:33.976Z,11.82
2022-12-11T09:51:04.945Z,12.82
2022-12-11T09:53:34.997Z,13.30
2022-12-11T09:56:10.564Z,13.50
2022-12-11T09:58:47.990Z,12.60
2022-12-11T10:01:34.595Z,11.85
2022-12-11T10:04:20.571Z,12.20
2022-12-11T10:06:50.705Z,11.20
2022-12-11T10:09:18.286Z,11.25
2022-12-11T10:11:56.740Z,11.10
2022-12-11T10:14:27.022Z,10.30
2022-12-11T10:17:00.044Z,11.80
2022-12-11T10:19:28.885Z,11.77
2022-12-11T10:21:56.507Z,12.13
2022-12-11T10:27:33.698Z,11.40
2022-12-11T10:30:03.091Z,10.55
2022-12-11T10:32:37.767Z,11.70
2022-12-11T10:35:06.223Z,10.48
2022-12-11T10:37:33.712Z,10.50
2022-12-11T10:40:00.817Z,11.68
2022-12-11T10:42:28.047Z,10.70
2022-12-11T10:44:59.543Z,9.98
2022-12-11T10:47:27.005Z,10.52
2022-12-11T10:49:55.964Z,11.40
2022-12-11T10:52:25.216Z,10.75
2022-12-11T10:57:26.997Z,7.88
2022-12-11T10:59:54.192Z,9.52
2022-12-11T11:02:33.719Z,10.32
2022-12-11T11:05:01.869Z,9.70
2022-12-11T11:07:30.039Z,11.35
2022-12-11T11:10:13.555Z,11.43
2022-12-11T11:12:45.346Z,8.35
2022-12-11T11:15:15.277Z,11.80
2022-12-11T11:17:54.199Z,10.38
2022-12-11T11:20:24.670Z,10.48
2022-12-11T11:22:53.515Z,9.70
2022-12-11T11:25:22.488Z,12.80
2022-12-11T11:27:51.515Z,11.20
2022-12-11T11:30:20.407Z,11.38
2022-12-11T11:32:47.616Z,9.82
2022-12-11T11:35:18.575Z,14.23
2022-12-11T11:37:47.368Z,11.02
2022-12-11T11:40:17.497Z,10.00
2022-12-11T11:42:56.833Z,10.25
2022-12-11T11:45:27.517Z,10.77
2022-12-11T11:48:13.406Z,11.60
2022-12-11T11:50:45.005Z,9.23
2022-12-11T11:53:19.986Z,12.68
2022-12-11T11:55:55.830Z,11.35
2022-12-11T11:58:28.413Z,10.80
2022-12-11T12:00:55.703Z,10.38
2022-12-11T12:03:24.360Z,11.65
2022-12-11T12:05:54.288Z,10.77
2022-12-11T12:08:31.063Z,10.35
2022-12-11T12:11:05.694Z,11.15
2022-12-11T12:13:49.929Z,11.45
2022-12-11T12:16:51.620Z,10.82
2022-12-11T12:19:28.390Z,9.48
2022-12-11T12:21:55.934Z,10.35
2022-12-11T12:24:29.048Z,10.48
2022-12-11T12:27:49.943Z,11.15
2022-12-11T12:30:06.584Z,11.32
2022-12-11T12:32:52.601Z,10.98
2022-12-11T12:35:35.850Z,12.07
2022-12-11T12:38:23.248Z,10.80
2022-12-11T12:41:00.312Z,11.32
2022-12-11T12:43:34.600Z,10.82
2022-12-11T12:46:14.137Z,11.07
2022-12-11T12:48:41.421Z,11.35
2022-12-11T12:51:13.828Z,11.73
2022-12-11T12:53:42.242Z,11.93
2022-12-11T12:56:11.532Z,10.15
2022-12-11T13:01:41.583Z,11.18
2022-12-11T13:04:20.765Z,12.05
2022-12-11T13:06:56.916Z,10.65
2022-12-11T13:09:25.918Z,11.23
2022-12-11T13:11:57.568Z,12.70
2022-12-11T13:14:28.545Z,12.63
2022-12-11T13:17:16.109Z,11.02
2022-12-11T13:19:43.245Z,12.93
2022-12-11T13:22:13.322Z,11.10
2022-12-11T13:24:52.252Z,12.65
2022-12-11T13:27:37.947Z,11.80
2022-12-11T13:30:25.326Z,11.80
2022-12-11T13:33:06.975Z,12.85
2022-12-11T13:35:35.370Z,13.52
2022-12-11T13:38:05.142Z,12.80
2022-12-11T13:40:40.139Z,12.63
2022-12-11T13:43:12.609Z,12.65
2022-12-11T13:45:55.422Z,12.27
2022-12-11T13:48:29.404Z,13.10
2022-12-11T13:50:57.518Z,13.25
2022-12-11T13:53:24.802Z,12.13
2022-12-11T13:55:58.176Z,12.35
2022-12-11T13:58:25.762Z,12.98
2022-12-11T14:00:59.049Z,12.20
2022-12-11T14:03:26.299Z,13.73
2022-12-11T14:05:53.655Z,11.52
2022-12-11T14:08:28.057Z,12.30
2022-12-11T14:10:58.495Z,13.02
2022-12-11T14:13:32.314Z,11.77
2022-12-11T14:15:59.556Z,12.48
2022-12-11T14:18:30.844Z,12.85
2022-12-11T14:20:59.038Z,11.32
2022-12-11T14:23:27.492Z,13.65
2022-12-11T14:25:56.398Z,12.27
2022-12-11T14:28:27.502Z,12.13
2022-12-11T14:30:57.508Z,13.27
2022-12-11T14:33:26.607Z,14.02
2022-12-11T14:35:55.294Z,12.50
2022-12-11T14:38:31.315Z,14.13
2022-12-11T14:41:01.926Z,13.25
2022-12-11T14:43:36.169Z,13.90
2022-12-11T14:46:05.175Z,12.38
2022-12-11T14:48:35.821Z,13.27
2022-12-11T14:51:04.928Z,13.38
2022-12-11T14:53:52.295Z,13.30
2022-12-11T14:56:24.150Z,13.50
2022-12-11T14:58:58.940Z,12.57
2022-12-11T15:01:30.869Z,14.30
2022-12-11T15:04:16.211Z,13.27
2022-12-11T15:06:44.753Z,13.73
2022-12-11T15:09:21.198Z,13.77
2022-12-11T15:11:49.562Z,14.57
2022-12-11T15:14:18.988Z,13.30
2022-12-11T15:16:46.435Z,12.95
2022-12-11T15:19:22.940Z,14.73
2022-12-11T15:21:50.232Z,13.88
2022-12-11T15:24:25.305Z,14.02
2022-12-11T15:26:52.535Z,12.05
2022-12-11T15:29:32.020Z,14.60
2022-12-11T15:32:19.404Z,13.63
2022-12-11T15:34:51.076Z,14.75
2022-12-11T15:37:24.254Z,13.85
2022-12-11T15:39:51.735Z,13.35
2022-12-11T15:42:23.717Z,13.75
2022-12-11T15:44:51.034Z,12.88
2022-12-11T15:47:21.399Z,15.40
2022-12-11T15:49:48.466Z,13.77
2022-12-11T15:52:15.867Z,13.65
2022-12-11T15:54:42.984Z,14.25
2022-12-11T15:57:24.701Z,13.63
2022-12-11T15:59:53.526Z,14.48
2022-12-11T16:02:24.386Z,13.45
2022-12-11T16:04:51.618Z,12.27
2022-12-11T16:07:21.376Z,11.50
2022-12-11T16:09:48.532Z,12.48
2022-12-11T16:12:16.222Z,10.60
2022-12-11T16:14:44.271Z,11.88
2022-12-11T16:17:12.702Z,12.10
2022-12-11T16:19:40.227Z,12.82
2022-12-11T16:22:08.898Z,13.23
2022-12-11T16:24:36.685Z,14.20
2022-12-11T16:27:04.374Z,14.57
2022-12-11T16:29:35.201Z,13.63
2022-12-11T16:32:02.306Z,12.82
2022-12-11T16:34:29.787Z,12.68
2022-12-11T16:37:00.547Z,17.27
2022-12-11T16:39:27.903Z,20.33
2022-12-11T16:41:55.012Z,16.77
2022-12-11T16:44:23.269Z,23.63
2022-12-11T16:46:50.725Z,18.80
2022-12-11T16:49:18.004Z,15.88
2022-12-11T16:51:45.239Z,15.05
2022-12-11T16:54:12.501Z,17.40
2022-12-11T16:56:39.662Z,14.52
2022-12-11T16:59:06.743Z,14.38
2022-12-11T17:01:34.563Z,14.65
2022-12-11T17:04:01.705Z,15.93
2022-12-11T17:06:29.371Z,13.85
2022-12-11T17:08:56.450Z,11.73
2022-12-11T17:11:24.996Z,11.57
2022-12-11T17:13:55.703Z,11.77
2022-12-11T17:16:24.886Z,12.90
2022-12-11T17:18:52.310Z,17.05
2022-12-11T17:21:20.094Z,12.20
2022-12-11T17:23:47.243Z,12.27
2022-12-11T17:26:14.831Z,11.57
2022-12-11T17:28:41.955Z,12.02
2022-12-11T17:31:10.720Z,13.10
2022-12-11T17:33:38.027Z,13.25
2022-12-11T17:36:05.883Z,12.10
2022-12-11T17:38:33.000Z,11.75
2022-12-11T17:41:00.208Z,11.57
2022-12-11T17:43:27.374Z,11.68
2022-12-11T17:45:55.292Z,11.80
2022-12-11T17:48:22.729Z,14.73
2022-12-11T17:50:50.563Z,14.00
2022-12-11T17:53:18.544Z,11.70
2022-12-11T17:55:46.300Z,13.00
2022-12-11T17:58:17.744Z,12.15
2022-12-11T18:00:46.730Z,11.88
2022-12-11T18:03:14.611Z,13.15
2022-12-11T18:05:46.319Z,14.05
2022-12-11T18:08:18.056Z,14.38
2022-12-11T18:10:45.244Z,13.63
2022-12-11T18:13:12.469Z,12.98
2022-12-11T18:15:40.001Z,12.88
2022-12-11T18:18:07.556Z,13.52
2022-12-11T18:20:34.935Z,11.90
2022-12-11T18:23:02.412Z,13.75
2022-12-11T18:25:29.649Z,12.52
2022-12-11T18:27:57.692Z,13.23
2022-12-11T18:30:26.327Z,14.57
2022-12-11T18:32:53.576Z,13.32
2022-12-11T18:35:21.307Z,13.75
2022-12-11T18:37:48.473Z,18.40
2022-12-11T18:40:15.650Z,13.13
2022-12-11T18:42:42.823Z,15.10
2022-12-11T18:45:10.323Z,13.82
2022-12-11T18:47:37.708Z,15.43
2022-12-11T18:50:07.932Z,19.70
2022-12-11T18:52:35.612Z,12.63
2022-12-11T18:55:03.135Z,14.00
2022-12-11T18:57:30.271Z,12.43
2022-12-11T19:00:02.342Z,12.32
2022-12-11T19:02:29.561Z,11.30
2022-12-11T19:04:56.725Z,16.42
2022-12-11T19:07:23.799Z,14.98
2022-12-11T19:09:50.968Z,12.50
2022-12-11T19:12:18.107Z,19.90
2022-12-11T19:14:45.252Z,13.77
2022-12-11T19:17:12.408Z,13.88
2022-12-11T19:19:39.617Z,11.40
2022-12-11T19:22:06.770Z,13.05
2022-12-11T19:24:33.875Z,13.30
2022-12-11T19:27:01.620Z,12.48
2022-12-11T19:29:32.740Z,11.95
2022-12-11T19:32:00.270Z,12.95
2022-12-11T19:34:27.414Z,11.48
2022-12-11T19:36:55.696Z,12.63
2022-12-11T19:39:22.844Z,11.98
2022-12-11T19:41:50.012Z,13.75
2022-12-11T19:44:17.112Z,13.57
2022-12-11T19:46:44.415Z,12.52
2022-12-11T19:49:11.719Z,12.93
2022-12-11T19:51:39.700Z,14.73
2022-12-11T19:54:07.821Z,12.25
2022-12-11T19:56:35.718Z,12.82
2022-12-11T19:59:04.128Z,12.10
2022-12-11T20:01:32.384Z,12.05
2022-12-11T20:04:01.101Z,12.45
2022-12-11T20:06:38.476Z,12.73
2022-12-11T20:09:07.446Z,13.15
2022-12-11T20:11:34.692Z,12.25
2022-12-11T20:14:01.902Z,11.98
2022-12-11T20:17:01.685Z,12.43
2022-12-11T20:19:16.228Z,14.52
2022-12-11T20:21:43.511Z,13.75
2022-12-11T20:24:11.374Z,12.77
2022-12-11T20:26:39.002Z,12.35
2022-12-11T20:29:08.131Z,12.48
2022-12-11T20:31:35.826Z,12.15
2022-12-11T20:34:03.312Z,11.90
2022-12-11T20:36:30.457Z,12.75
2022-12-11T20:38:57.732Z,11.73
2022-12-11T20:41:25.809Z,12.20
2022-12-11T20:43:54.130Z,11.23
2022-12-11T20:46:21.989Z,11.20
2022-12-11T20:48:49.571Z,11.57
2022-12-11T20:51:23.842Z,11.10
2022-12-11T20:53:58.242Z,11.95
2022-12-11T20:56:26.287Z,11.45
2022-12-11T20:58:53.437Z,10.48
2022-12-11T21:01:22.453Z,10.60
2022-12-11T21:03:50.118Z,11.50
2022-12-11T21:06:26.774Z,9.70
2022-12-11T21:08:54.067Z,10.15
2022-12-11T21:11:21.521Z,10.88
2022-12-11T21:13:48.952Z,11.10
2022-12-11T21:16:16.225Z,12.25
2022-12-11T21:18:44.296Z,12.00
2022-12-11T21:21:11.398Z,11.57
2022-12-11T21:23:38.507Z,10.85
2022-12-11T21:26:05.760Z,13.52
2022-12-11T21:28:35.531Z,12.75
2022-12-11T21:31:05.355Z,14.27
2022-12-11T21:33:32.562Z,13.50
2022-12-11T21:36:00.120Z,12.25
2022-12-11T21:38:28.084Z,11.18
2022-12-11T21:40:56.036Z,12.60
2022-12-11T21:43:23.477Z,11.88
2022-12-11T21:46:06.484Z,10.73
2022-12-11T21:48:33.947Z,10.88
2022-12-11T21:51:12.020Z,11.98
2022-12-11T21:53:39.349Z,10.88
2022-12-11T21:56:07.457Z,11.30
2022-12-11T21:58:34.714Z,11.23
2022-12-11T22:01:01.873Z,11.20
2022-12-11T22:03:29.115Z,10.52
2022-12-11T22:05:56.214Z,10.20
2022-12-11T22:08:23.501Z,11.25
2022-12-11T22:10:52.085Z,11.25
2022-12-11T22:13:19.336Z,10.32
2022-12-11T22:15:46.495Z,11.63
2022-12-11T22:18:13.598Z,10.65
2022-12-11T22:20:40.725Z,10.10
2022-12-11T22:23:07.902Z,10.40
2022-12-11T22:25:35.288Z,9.68
2022-12-11T22:28:02.570Z,11.15
2022-12-11T22:30:29.812Z,10.90
2022-12-11T22:32:56.990Z,10.32
2022-12-11T22:35:27.126Z,12.05
2022-12-11T22:37:55.267Z,10.70
2022-12-11T22:40:22.668Z,9.98
2022-12-11T22:42:49.864Z,10.57
2022-12-11T22:45:17.085Z,10.55
2022-12-11T22:47:44.324Z,11.00
2022-12-11T22:50:12.054Z,11.23
2022-12-11T22:52:39.219Z,10.52
2022-12-11T22:55:07.006Z,11.75
2022-12-11T22:57:36.351Z,9.63
2022-12-11T23:00:05.879Z,11.70
2022-12-11T23:02:33.050Z,10.00
2022-12-11T23:05:00.214Z,9.82
2022-12-11T23:07:27.531Z,13.18
2022-12-11T23:09:54.674Z,11.18
2022-12-11T23:12:23.487Z,10.10
2022-12-11T23:14:51.154Z,12.13
2022-12-11T23:17:18.335Z,12.15
2022-12-11T23:19:46.092Z,12.20
2022-12-11T23:22:13.573Z,8.90
2022-12-11T23:24:40.823Z,10.27
2022-12-11T23:27:07.928Z,12.00
2022-12-11T23:29:35.071Z,11.27
2022-12-11T23:32:02.307Z,11.02
2022-12-11T23:34:29.459Z,10.85
2022-12-11T23:36:56.627Z,9.55
2022-12-11T23:39:23.733Z,10.25
2022-12-11T23:41:50.876Z,11.45
2022-12-11T23:44:18.047Z,11.07
2022-12-11T23:46:45.163Z,10.57
2022-12-11T23:49:12.225Z,11.52
2022-12-11T23:51:39.758Z,11.75
2022-12-11T23:54:06.881Z,12.57
2022-12-11T23:56:34.145Z,9.55
2022-12-11T23:59:01.310Z,11.50
